createdAt,value
2022-08-23T00:00:18.046Z,100378.06
2022-08-23T00:03:09.430Z,100372.81
2022-08-23T00:06:00.074Z,100384.88
2022-08-23T00:08:52.612Z,100388.69
2022-08-23T00:11:54.549Z,100387.09
2022-08-23T00:14:53.747Z,100396.19
2022-08-23T00:17:45.172Z,100399.91
2022-08-23T00:20:34.860Z,100399.34
2022-08-23T00:23:25.153Z,100393.97
2022-08-23T00:26:16.074Z,100405.66
2022-08-23T00:29:08.857Z,100403.63
2022-08-23T00:32:00.207Z,100408.59
2022-08-23T00:34:50.151Z,100407.88
2022-08-23T00:37:40.501Z,100406.13
2022-08-23T00:40:30.767Z,100415.56
2022-08-23T00:43:48.106Z,100416.69
2022-08-23T00:47:06.554Z,100414.78
2022-08-23T00:50:24.469Z,100400.19
2022-08-23T00:53:24.392Z,100403.84
2022-08-23T00:56:15.798Z,100398.44
2022-08-23T00:59:05.894Z,100406.22
2022-08-23T01:01:55.524Z,100393.06
2022-08-23T01:04:47.837Z,100394.00
2022-08-23T01:07:51.562Z,100379.53
2022-08-23T01:10:45.549Z,100400.03
2022-08-23T01:13:52.754Z,100391.97
2022-08-23T01:17:15.003Z,100402.34
2022-08-23T01:20:10.334Z,100416.47
2022-08-23T01:23:05.058Z,100401.34
2022-08-23T01:25:55.300Z,100415.66
2022-08-23T01:28:45.699Z,100423.16
2022-08-23T01:31:36.706Z,100428.53
2022-08-23T01:34:28.337Z,100415.28
2022-08-23T01:37:18.377Z,100419.34
2022-08-23T01:40:10.205Z,100404.41
2022-08-23T01:43:00.169Z,100420.19
2022-08-23T01:45:50.933Z,100406.44
2022-08-23T01:48:42.739Z,100412.84
2022-08-23T01:51:33.663Z,100418.88
2022-08-23T01:54:24.021Z,100419.91
2022-08-23T01:57:13.894Z,100414.72
2022-08-23T02:00:04.332Z,100402.72
2022-08-23T02:03:03.883Z,100404.78
2022-08-23T02:05:53.726Z,100408.31
2022-08-23T02:09:03.522Z,100398.44
2022-08-23T02:12:01.127Z,100394.22
2022-08-23T02:14:52.446Z,100396.41
2022-08-23T02:17:47.920Z,100398.44
2022-08-23T02:20:38.418Z,100396.28
2022-08-23T02:23:29.317Z,100400.13
2022-08-23T02:26:18.788Z,100404.91
2022-08-23T02:29:09.702Z,100391.75
2022-08-23T02:32:01.464Z,100392.09
2022-08-23T02:35:05.170Z,100399.16
2022-08-23T02:37:57.475Z,100399.47
2022-08-23T02:40:47.945Z,100386.66
2022-08-23T02:43:43.497Z,100411.59
2022-08-23T02:46:33.592Z,100405.19
2022-08-23T02:49:23.797Z,100410.28
2022-08-23T02:52:13.878Z,100404.91
2022-08-23T02:55:04.968Z,100414.38
2022-08-23T02:57:54.597Z,100398.44
2022-08-23T03:00:48.492Z,100393.06
2022-08-23T03:03:38.382Z,100390.72
2022-08-23T03:06:27.990Z,100397.63
2022-08-23T03:09:17.251Z,100391.75
2022-08-23T03:12:07.395Z,100382.31
2022-08-23T03:15:00.247Z,100372.47
2022-08-23T03:17:50.257Z,100352.25
2022-08-23T03:20:43.072Z,100355.53
2022-08-23T03:23:34.423Z,100372.19
2022-08-23T03:26:23.733Z,100407.19
2022-08-23T03:29:15.420Z,100381.56
2022-08-23T03:32:21.263Z,100374.56
2022-08-23T03:35:16.540Z,100370.13
2022-08-23T03:38:06.390Z,100381.72
2022-08-23T03:40:57.513Z,100382.13
2022-08-23T03:43:47.068Z,100379.88
2022-08-23T03:46:38.689Z,100413.81
2022-08-23T03:49:29.364Z,100409.09
2022-08-23T03:52:22.268Z,100394.72
2022-08-23T03:55:11.971Z,100375.06
2022-08-23T03:58:05.557Z,100383.78
2022-08-23T04:00:54.986Z,100382.84
2022-08-23T04:03:48.567Z,100367.06
2022-08-23T04:06:38.528Z,100360.03
2022-08-23T04:09:28.364Z,100374.50
2022-08-23T04:12:18.570Z,100366.31
2022-08-23T04:15:11.726Z,100404.13
2022-08-23T04:18:03.079Z,100405.16
2022-08-23T04:20:54.066Z,100394.41
2022-08-23T04:23:45.343Z,100385.50
2022-08-23T04:26:35.366Z,100382.34
2022-08-23T04:29:34.338Z,100374.94
2022-08-23T04:32:28.321Z,100373.63
2022-08-23T04:35:20.524Z,100376.59
2022-08-23T04:38:24.752Z,100377.97
2022-08-23T04:41:40.133Z,100381.31
2022-08-23T04:44:29.386Z,100369.91
2022-08-23T04:47:22.720Z,100350.44
2022-08-23T04:50:13.966Z,100346.09
2022-08-23T04:53:36.621Z,100343.41
2022-08-23T04:56:45.210Z,100342.09
2022-08-23T04:59:44.787Z,100324.94
2022-08-23T05:02:37.591Z,100328.94
2022-08-23T05:05:29.103Z,100326.25
2022-08-23T05:08:19.617Z,100318.84
2022-08-23T05:11:10.632Z,100318.84
2022-08-23T05:14:03.387Z,100293.41
2022-08-23T05:16:53.364Z,100293.53
2022-08-23T05:19:47.250Z,100278.31
2022-08-23T05:22:42.573Z,100291.59
2022-08-23T05:25:59.406Z,100296.22
2022-08-23T05:28:57.172Z,100298.19
2022-08-23T05:31:52.061Z,100305.50
2022-08-23T05:34:47.469Z,100287.59
2022-08-23T05:37:36.586Z,100282.31
2022-08-23T05:40:26.618Z,100293.16
2022-08-23T05:43:28.262Z,100297.72
2022-08-23T05:46:21.178Z,100298.09
2022-08-23T05:49:32.777Z,100289.81
2022-08-23T05:52:22.133Z,100289.00
2022-08-23T05:55:12.168Z,100301.78
2022-08-23T05:58:19.926Z,100298.75
2022-08-23T06:01:10.533Z,100292.72
2022-08-23T06:04:09.513Z,100293.06
2022-08-23T06:07:00.316Z,100286.03
2022-08-23T06:09:50.957Z,100287.13
2022-08-23T06:12:41.077Z,100282.41
2022-08-23T06:15:30.762Z,100271.00
2022-08-23T06:18:21.570Z,100274.34
2022-08-23T06:21:16.162Z,100254.88
2022-08-23T06:24:10.058Z,100251.53
2022-08-23T06:27:07.530Z,100258.59
2022-08-23T06:29:57.592Z,100243.75
2022-08-23T06:32:56.164Z,100244.41
2022-08-23T06:36:07.587Z,100250.78
2022-08-23T06:39:19.487Z,100245.03
2022-08-23T06:42:38.953Z,100252.47
2022-08-23T06:45:35.137Z,100254.50
2022-08-23T06:48:26.745Z,100245.78
2022-08-23T06:51:38.117Z,100243.75
2022-08-23T06:54:45.663Z,100256.16
2022-08-23T06:57:54.597Z,100254.94
2022-08-23T07:00:47.765Z,100263.13
2022-08-23T07:03:49.266Z,100267.06
2022-08-23T07:07:17.667Z,100255.88
2022-08-23T07:10:09.413Z,100252.09
2022-08-23T07:12:59.602Z,100246.72
2022-08-23T07:15:50.580Z,100260.53
2022-08-23T07:18:42.859Z,100244.75
2022-08-23T07:21:33.959Z,100262.28
2022-08-23T07:24:25.704Z,100273.41
2022-08-23T07:27:18.303Z,100266.53
2022-08-23T07:30:23.642Z,100265.06
2022-08-23T07:33:13.625Z,100260.22
2022-08-23T07:36:23.543Z,100263.47
2022-08-23T07:39:15.497Z,100255.78
2022-08-23T07:42:23.085Z,100265.88
2022-08-23T07:45:17.613Z,100261.69
2022-08-23T07:48:11.782Z,100261.97
2022-08-23T07:51:21.663Z,100266.53
2022-08-23T07:54:12.837Z,100265.31
2022-08-23T07:57:25.437Z,100265.81
2022-08-23T08:00:24.818Z,100262.75
2022-08-23T08:03:27.506Z,100267.63
2022-08-23T08:06:36.393Z,100269.50
2022-08-23T08:09:26.184Z,100260.44
2022-08-23T08:12:16.444Z,100269.31
2022-08-23T08:15:06.572Z,100260.22
2022-08-23T08:18:04.306Z,100264.59
2022-08-23T08:21:21.017Z,100255.69
2022-08-23T08:24:22.581Z,100246.63
2022-08-23T08:27:17.339Z,100253.28
2022-08-23T08:30:08.969Z,100251.63
2022-08-23T08:33:03.490Z,100255.63
2022-08-23T08:35:59.977Z,100256.63
2022-08-23T08:38:54.369Z,100251.44
2022-08-23T08:42:04.381Z,100243.91
2022-08-23T08:45:09.436Z,100276.38
2022-08-23T08:48:13.561Z,100292.16
2022-08-23T08:51:38.359Z,100283.44
2022-08-23T08:54:30.342Z,100283.16
2022-08-23T08:57:22.634Z,100318.91
2022-08-23T09:00:22.735Z,100326.69
2022-08-23T09:03:15.811Z,100341.00
2022-08-23T09:06:27.119Z,100348.13
2022-08-23T09:09:34.587Z,100345.34
2022-08-23T09:12:54.754Z,100340.16
2022-08-23T09:16:00.488Z,100346.09
2022-08-23T09:18:50.750Z,100334.38
2022-08-23T09:21:59.840Z,100332.00
2022-08-23T09:24:49.883Z,100325.41
2022-08-23T09:27:52.991Z,100332.00
2022-08-23T09:30:56.614Z,100326.63
2022-08-23T09:33:48.209Z,100344.78
2022-08-23T09:37:12.221Z,100351.47
2022-08-23T09:40:26.892Z,100354.69
2022-08-23T09:43:23.523Z,100365.78
2022-08-23T09:46:14.035Z,100381.56
2022-08-23T09:49:28.170Z,100394.84
2022-08-23T09:52:37.539Z,100394.47
2022-08-23T09:55:36.556Z,100400.56
2022-08-23T09:58:33.726Z,100404.28
2022-08-23T10:01:38.186Z,100396.88
2022-08-23T10:04:48.489Z,100406.78
2022-08-23T10:07:42.670Z,100408.69
2022-08-23T10:10:54.645Z,100423.50
2022-08-23T10:13:54.237Z,100403.69
2022-08-23T10:17:12.478Z,100419.81
2022-08-23T10:20:11.009Z,100420.97
2022-08-23T10:23:38.780Z,100409.88
2022-08-23T10:26:34.892Z,100408.53
2022-08-23T10:29:42.821Z,100429.22
2022-08-23T10:32:50.978Z,100427.91
2022-08-23T10:35:50.648Z,100426.22
2022-08-23T10:39:04.917Z,100429.38
2022-08-23T10:42:33.137Z,100431.06
2022-08-23T10:45:38.001Z,100447.00
2022-08-23T10:49:00.013Z,100450.72
2022-08-23T10:51:52.459Z,100448.69
2022-08-23T10:55:00.793Z,100450.38
2022-08-23T10:57:55.218Z,100454.41
2022-08-23T11:00:45.175Z,100459.78
2022-08-23T11:03:45.776Z,100460.63
2022-08-23T11:06:38.853Z,100470.19
2022-08-23T11:09:37.233Z,100471.19
2022-08-23T11:12:34.721Z,100482.28
2022-08-23T11:15:28.845Z,100473.00
2022-08-23T11:18:41.509Z,100476.25
2022-08-23T11:21:34.766Z,100481.78
2022-08-23T11:24:33.346Z,100482.31
2022-08-23T11:27:35.653Z,100487.84
2022-08-23T11:30:38.153Z,100477.09
2022-08-23T11:33:36.767Z,100477.09
2022-08-23T11:36:28.754Z,100473.38
2022-08-23T11:39:25.223Z,100475.91
2022-08-23T11:42:21.153Z,100481.66
2022-08-23T11:45:29.235Z,100476.94
2022-08-23T11:48:43.573Z,100479.63
2022-08-23T11:51:39.715Z,100487.19
2022-08-23T11:54:36.960Z,100495.91
2022-08-23T11:57:51.119Z,100489.34
2022-08-23T12:01:09.853Z,100495.38
2022-08-23T12:04:09.511Z,100517.44
2022-08-23T12:07:04.883Z,100506.84
2022-08-23T12:09:57.592Z,100508.53
2022-08-23T12:12:47.794Z,100523.94
2022-08-23T12:16:16.618Z,100529.66
2022-08-23T12:19:13.574Z,100542.25
2022-08-23T12:22:15.862Z,100544.78
2022-08-23T12:25:09.880Z,100550.16
2022-08-23T12:28:22.817Z,100559.72
2022-08-23T12:31:27.537Z,100593.81
2022-08-23T12:34:51.821Z,100582.75
2022-08-23T12:37:52.738Z,100581.06
2022-08-23T12:40:46.329Z,100585.44
2022-08-23T12:43:36.247Z,100585.09
2022-08-23T12:46:35.926Z,100595.84
2022-08-23T12:49:32.128Z,100601.56
2022-08-23T12:52:28.356Z,100607.09
2022-08-23T12:55:21.216Z,100611.78
2022-08-23T12:58:11.471Z,100605.94
2022-08-23T13:01:06.052Z,100617.69
2022-08-23T13:04:07.411Z,100623.22
2022-08-23T13:07:01.218Z,100622.88
2022-08-23T13:09:55.611Z,100634.84
2022-08-23T13:12:46.790Z,100648.44
2022-08-23T13:15:45.302Z,100644.22
2022-08-23T13:18:43.020Z,100651.97
2022-08-23T13:21:39.647Z,100648.94
2022-08-23T13:24:39.199Z,100652.28
2022-08-23T13:27:55.297Z,100655.31
2022-08-23T13:31:04.143Z,100661.72
2022-08-23T13:33:56.452Z,100663.38
2022-08-23T13:36:46.763Z,100662.53
2022-08-23T13:39:37.191Z,100663.03
2022-08-23T13:42:38.702Z,100665.72
2022-08-23T13:45:36.564Z,100673.47
2022-08-23T13:48:33.091Z,100686.06
2022-08-23T13:52:38.023Z,100691.28
2022-08-23T13:55:14.922Z,100689.25
2022-08-23T13:58:12.716Z,100677.63
2022-08-23T14:01:03.444Z,100685.53
2022-08-23T14:03:53.975Z,100680.16
2022-08-23T14:06:43.946Z,100683.19
2022-08-23T14:09:40.523Z,100678.84
2022-08-23T14:12:35.158Z,100683.69
2022-08-23T14:19:16.853Z,100681.69
2022-08-23T14:21:48.154Z,100691.59
2022-08-23T14:24:37.781Z,100689.09
2022-08-23T14:27:27.803Z,100699.00
2022-08-23T14:30:32.206Z,100690.94
2022-08-23T14:33:22.997Z,100693.63
2022-08-23T14:36:13.732Z,100691.97
2022-08-23T14:39:03.875Z,100683.22
2022-08-23T14:41:54.069Z,100700.16
2022-08-23T14:44:43.913Z,100689.44
2022-08-23T14:47:36.491Z,100692.97
2022-08-23T14:50:28.265Z,100698.16
2022-08-23T14:53:21.798Z,100702.72
2022-08-23T14:56:21.060Z,100709.75
2022-08-23T14:59:11.020Z,100711.44
2022-08-23T15:02:01.157Z,100717.97
2022-08-23T15:04:51.262Z,100712.78
2022-08-23T15:07:40.324Z,100717.16
2022-08-23T15:13:55.562Z,100732.78
2022-08-23T15:16:45.796Z,100722.19
2022-08-23T15:19:35.247Z,100720.72
2022-08-23T15:22:29.354Z,100717.16
2022-08-23T15:25:19.651Z,100722.06
2022-08-23T15:28:13.311Z,100723.88
2022-08-23T15:31:03.298Z,100717.03
2022-08-23T15:33:52.891Z,100704.41
2022-08-23T15:36:43.631Z,100706.44
2022-08-23T15:39:33.640Z,100695.69
2022-08-23T15:42:23.710Z,100690.31
2022-08-23T15:45:13.542Z,100686.97
2022-08-23T15:48:06.425Z,100670.34
2022-08-23T15:50:56.378Z,100676.91
2022-08-23T15:53:46.168Z,100669.84
2022-08-23T15:56:49.594Z,100666.66
2022-08-23T15:59:39.502Z,100668.50
2022-08-23T16:02:34.139Z,100677.22
2022-08-23T16:05:35.711Z,100671.53
2022-08-23T16:08:31.803Z,100670.69
2022-08-23T16:11:22.865Z,100664.47
2022-08-23T16:14:12.469Z,100669.84
2022-08-23T16:17:03.204Z,100670.19
2022-08-23T16:19:54.290Z,100659.78
2022-08-23T16:22:48.597Z,100664.81
2022-08-23T16:25:42.110Z,100659.63
2022-08-23T16:28:31.360Z,100655.78
2022-08-23T16:31:21.056Z,100664.31
2022-08-23T16:34:26.984Z,100662.13
2022-08-23T16:37:16.475Z,100669.69
2022-08-23T16:40:11.056Z,100663.81
2022-08-23T16:43:01.862Z,100657.09
2022-08-23T16:45:52.403Z,100654.75
2022-08-23T16:48:41.363Z,100656.78
2022-08-23T16:51:31.255Z,100656.13
2022-08-23T16:54:21.560Z,100652.44
2022-08-23T16:57:11.567Z,100656.44
2022-08-23T17:00:01.544Z,100656.44
2022-08-23T17:02:51.937Z,100661.16
2022-08-23T17:08:30.983Z,100649.41
2022-08-23T17:11:21.562Z,100639.50
2022-08-23T17:14:13.533Z,100638.00
2022-08-23T17:17:03.087Z,100636.66
2022-08-23T17:19:56.295Z,100633.13
2022-08-23T17:22:46.038Z,100636.13
2022-08-23T17:25:37.967Z,100630.63
2022-08-23T17:28:27.361Z,100620.22
2022-08-23T17:31:21.515Z,100611.97
2022-08-23T17:34:10.799Z,100610.50
2022-08-23T17:36:59.869Z,100611.50
2022-08-23T17:39:51.076Z,100606.13
2022-08-23T17:42:43.942Z,100606.13
2022-08-23T17:45:40.870Z,100613.84
2022-08-23T17:48:31.038Z,100612.16
2022-08-23T17:51:20.998Z,100615.84
2022-08-23T17:54:12.587Z,100606.13
2022-08-23T17:57:05.722Z,100611.63
2022-08-23T17:59:55.416Z,100609.44
2022-08-23T18:02:45.650Z,100618.16
2022-08-23T18:05:35.947Z,100611.13
2022-08-23T18:08:25.347Z,100600.38
2022-08-23T18:11:18.146Z,100597.69
2022-08-23T18:14:08.366Z,100600.38
2022-08-23T18:17:18.472Z,100605.91
2022-08-23T18:20:10.323Z,100604.91
2022-08-23T18:23:01.594Z,100605.75
2022-08-23T18:25:51.575Z,100600.38
2022-08-23T18:28:43.434Z,100599.38
2022-08-23T18:31:33.307Z,100597.53
2022-08-23T18:34:23.088Z,100598.72
2022-08-23T18:37:12.587Z,100604.06
2022-08-23T18:40:05.492Z,100607.75
2022-08-23T18:42:57.275Z,100618.16
2022-08-23T18:45:48.269Z,100612.13
2022-08-23T18:48:38.163Z,100608.59
2022-08-23T18:51:28.460Z,100598.72
2022-08-23T18:54:18.219Z,100599.38
2022-08-23T18:57:08.395Z,100599.03
2022-08-23T19:00:07.085Z,100606.41
2022-08-23T19:02:56.570Z,100619.81
2022-08-23T19:05:47.006Z,100620.50
2022-08-23T19:08:37.481Z,100619.81
2022-08-23T19:11:27.082Z,100615.47
2022-08-23T19:14:16.601Z,100614.28
2022-08-23T19:17:09.396Z,100623.50
2022-08-23T19:19:58.944Z,100620.84
2022-08-23T19:22:48.735Z,100616.28
2022-08-23T19:25:41.900Z,100623.34
2022-08-23T19:28:33.291Z,100619.16
2022-08-23T19:31:25.387Z,100614.13
2022-08-23T19:34:16.079Z,100617.47
2022-08-23T19:37:06.420Z,100622.50
2022-08-23T19:40:03.061Z,100618.81
2022-08-23T19:42:53.008Z,100620.16
2022-08-23T19:45:43.506Z,100621.16
2022-08-23T19:48:33.389Z,100620.16
2022-08-23T19:51:23.253Z,100628.53
2022-08-23T19:54:13.891Z,100624.00
2022-08-23T19:57:04.157Z,100630.22
2022-08-23T19:59:53.644Z,100626.84
2022-08-23T20:02:43.534Z,100629.88
2022-08-23T20:05:34.652Z,100631.88
2022-08-23T20:08:28.089Z,100628.22
2022-08-23T20:11:17.591Z,100627.53
2022-08-23T20:14:08.098Z,100624.84
2022-08-23T20:16:58.577Z,100624.00
2022-08-23T20:19:48.872Z,100610.44
2022-08-23T20:22:56.537Z,100614.13
2022-08-23T20:25:46.544Z,100619.47
2022-08-23T20:28:36.196Z,100615.78
2022-08-23T20:31:29.544Z,100610.44
2022-08-23T20:34:19.159Z,100610.75
2022-08-23T20:37:09.603Z,100619.81
2022-08-23T20:40:02.941Z,100624.84
2022-08-23T20:42:53.746Z,100630.22
2022-08-23T20:45:43.966Z,100619.63
2022-08-23T20:48:37.348Z,100621.50
2022-08-23T20:51:28.739Z,100621.50
2022-08-23T20:54:19.243Z,100621.50
2022-08-23T20:57:08.593Z,100623.16
2022-08-23T20:59:58.281Z,100630.88
2022-08-23T21:02:48.121Z,100620.63
2022-08-23T21:05:38.710Z,100622.16
2022-08-23T21:08:28.017Z,100628.53
2022-08-23T21:11:17.657Z,100623.84
2022-08-23T21:14:07.567Z,100634.25
2022-08-23T21:17:00.573Z,100643.63
2022-08-23T21:19:50.436Z,100653.03
2022-08-23T21:22:39.745Z,100651.00
2022-08-23T21:25:29.485Z,100650.69
2022-08-23T21:28:18.717Z,100649.81
2022-08-23T21:31:17.581Z,100646.00
2022-08-23T21:34:09.016Z,100634.41
2022-08-23T21:36:58.424Z,100634.59
2022-08-23T21:39:47.639Z,100640.09
2022-08-23T21:42:37.148Z,100638.28
2022-08-23T21:45:27.743Z,100654.38
2022-08-23T21:48:17.425Z,100646.13
2022-08-23T21:51:07.137Z,100641.78
2022-08-23T21:53:57.351Z,100639.94
2022-08-23T21:56:47.766Z,100650.69
2022-08-23T21:59:37.458Z,100638.28
2022-08-23T22:02:27.577Z,100638.28
2022-08-23T22:05:17.189Z,100639.94
2022-08-23T22:08:06.807Z,100652.34
2022-08-23T22:10:57.695Z,100651.50
2022-08-23T22:13:48.576Z,100652.69
2022-08-23T22:16:38.595Z,100651.00
2022-08-23T22:19:31.445Z,100665.09
2022-08-23T22:22:20.939Z,100670.47
2022-08-23T22:25:11.106Z,100667.09
2022-08-23T22:28:03.039Z,100673.28
2022-08-23T22:30:52.947Z,100674.16
2022-08-23T22:33:44.751Z,100684.56
2022-08-23T22:36:34.703Z,100685.38
2022-08-23T22:39:26.479Z,100688.91
2022-08-23T22:42:17.710Z,100696.28
2022-08-23T22:45:07.777Z,100707.69
2022-08-23T22:47:57.381Z,100708.50
2022-08-23T22:50:47.583Z,100707.38
2022-08-23T22:53:38.532Z,100704.81
2022-08-23T22:56:31.993Z,100719.81
2022-08-23T22:59:25.809Z,100712.72
2022-08-23T23:02:17.639Z,100716.94
2022-08-23T23:05:09.485Z,100721.63
2022-08-23T23:08:17.094Z,100724.84
2022-08-23T23:11:09.495Z,100724.50
2022-08-23T23:13:59.774Z,100729.03
2022-08-23T23:16:54.487Z,100727.88
2022-08-23T23:20:02.548Z,100726.88
2022-08-23T23:22:53.116Z,100741.28
2022-08-23T23:25:46.132Z,100742.28
2022-08-23T23:28:35.416Z,100749.00
2022-08-23T23:31:24.892Z,100745.78
2022-08-23T23:34:17.061Z,100749.84
2022-08-23T23:37:07.415Z,100761.44
2022-08-23T23:39:56.969Z,100770.16
2022-08-23T23:42:47.160Z,100767.50
2022-08-23T23:45:36.295Z,100778.38
2022-08-23T23:48:26.143Z,100771.69
2022-08-23T23:51:24.186Z,100788.47
2022-08-23T23:54:14.723Z,100798.06
2022-08-23T23:57:05.186Z,100791.50
2022-08-23T23:59:55.899Z,100795.00
